sensor_id;sensor_type;location;lat;lon;timestamp;pressure;altitude;pressure_sealevel;temperature;humidity
44079;BME280;29744;49.078;12.878;2023-03-18T00:02:48;96007.25;;;14.74;33.57
44079;BME280;29744;49.078;12.878;2023-03-18T00:07:48;96012.97;;;14.73;32.94
44079;BME280;29744;49.078;12.878;2023-03-18T00:12:49;96014.09;;;14.72;33.52
44079;BME280;29744;49.078;12.878;2023-03-18T00:17:49;96022.53;;;14.70;33.40
44079;BME280;29744;49.078;12.878;2023-03-18T00:22:50;96028.25;;;14.69;33.13
44079;BME280;29744;49.078;12.878;2023-03-18T00:27:50;96035.13;;;14.66;33.38
44079;BME280;29744;49.078;12.878;2023-03-18T00:32:51;96038.94;;;14.65;33.33
44079;BME280;29744;49.078;12.878;2023-03-18T00:37:52;96041.19;;;14.63;33.41
44079;BME280;29744;49.078;12.878;2023-03-18T00:42:54;96048.03;;;14.61;33.67
44079;BME280;29744;49.078;12.878;2023-03-18T00:48:00;96045.66;;;14.59;33.63
44079;BME280;29744;49.078;12.878;2023-03-18T00:53:01;96044.09;;;14.58;33.10
44079;BME280;29744;49.078;12.878;2023-03-18T00:58:02;96041.72;;;14.57;33.72
44079;BME280;29744;49.078;12.878;2023-03-18T01:03:02;96039.38;;;14.55;33.60
44079;BME280;29744;49.078;12.878;2023-03-18T01:08:03;96039.69;;;14.54;33.55
44079;BME280;29744;49.078;12.878;2023-03-18T01:13:04;96036.53;;;14.52;33.75
44079;BME280;29744;49.078;12.878;2023-03-18T01:18:04;96040.34;;;14.50;33.25
44079;BME280;29744;49.078;12.878;2023-03-18T01:23:05;96045.31;;;14.48;33.70
44079;BME280;29744;49.078;12.878;2023-03-18T01:28:08;96050.25;;;14.46;33.36
44079;BME280;29744;49.078;12.878;2023-03-18T01:33:08;96045.19;;;14.45;33.42
44079;BME280;29744;49.078;12.878;2023-03-18T01:38:08;96048.22;;;14.43;33.81
44079;BME280;29744;49.078;12.878;2023-03-18T01:48:16;96044.25;;;14.41;33.35
44079;BME280;29744;49.078;12.878;2023-03-18T01:53:19;96044.59;;;14.39;33.81
44079;BME280;29744;49.078;12.878;2023-03-18T01:58:31;96052.22;;;14.37;33.53
44079;BME280;29744;49.078;12.878;2023-03-18T02:03:33;96051.78;;;14.35;33.54
44079;BME280;29744;49.078;12.878;2023-03-18T02:08:35;96053.69;;;14.35;33.84
44079;BME280;29744;49.078;12.878;2023-03-18T02:13:39;96060.97;;;14.34;33.40
44079;BME280;29744;49.078;12.878;2023-03-18T02:18:46;96070.53;;;14.32;33.73
44079;BME280;29744;49.078;12.878;2023-03-18T02:24:13;96071.19;;;14.29;33.90
44079;BME280;29744;49.078;12.878;2023-03-18T02:29:19;96073.09;;;14.28;33.60
44079;BME280;29744;49.078;12.878;2023-03-18T02:34:23;96069.59;;;14.28;33.39
44079;BME280;29744;49.078;12.878;2023-03-18T02:39:24;96078.38;;;14.25;33.81
44079;BME280;29744;49.078;12.878;2023-03-18T02:44:24;96081.06;;;14.25;33.65
44079;BME280;29744;49.078;12.878;2023-03-18T02:49:26;96081.84;;;14.25;33.68
44079;BME280;29744;49.078;12.878;2023-03-18T02:54:28;96081.38;;;14.23;33.45
44079;BME280;29744;49.078;12.878;2023-03-18T02:59:29;96087.09;;;14.22;33.47
44079;BME280;29744;49.078;12.878;2023-03-18T03:04:31;96098.19;;;14.20;33.63
44079;BME280;29744;49.078;12.878;2023-03-18T03:09:32;96109.31;;;14.18;34.06
44079;BME280;29744;49.078;12.878;2023-03-18T03:14:32;96102.00;;;14.19;34.02
44079;BME280;29744;49.078;12.878;2023-03-18T03:19:32;96100.44;;;14.18;33.95
44079;BME280;29744;49.078;12.878;2023-03-18T03:24:32;96100.75;;;14.16;33.52
44079;BME280;29744;49.078;12.878;2023-03-18T03:29:33;96097.28;;;14.16;33.63
44079;BME280;29744;49.078;12.878;2023-03-18T03:34:33;96096.81;;;14.14;33.98
44079;BME280;29744;49.078;12.878;2023-03-18T03:39:34;96107.94;;;14.12;33.74
44079;BME280;29744;49.078;12.878;2023-03-18T03:44:34;96102.88;;;14.11;33.98
44079;BME280;29744;49.078;12.878;2023-03-18T03:49:35;96117.13;;;14.11;33.97
44079;BME280;29744;49.078;12.878;2023-03-18T03:54:35;96112.06;;;14.10;33.84
44079;BME280;29744;49.078;12.878;2023-03-18T03:59:37;96112.06;;;14.10;33.62
44079;BME280;29744;49.078;12.878;2023-03-18T04:04:37;96120.50;;;14.08;33.53
44079;BME280;29744;49.078;12.878;2023-03-18T04:09:37;96125.44;;;14.06;33.62
44079;BME280;29744;49.078;12.878;2023-03-18T04:14:38;96128.91;;;14.07;34.10
44079;BME280;29744;49.078;12.878;2023-03-18T04:19:38;96125.44;;;14.06;33.94
44079;BME280;29744;49.078;12.878;2023-03-18T04:24:39;96125.75;;;14.05;33.56
44079;BME280;29744;49.078;12.878;2023-03-18T04:29:39;96129.56;;;14.04;33.63
44079;BME280;29744;49.078;12.878;2023-03-18T04:34:40;96137.19;;;14.02;34.19
44079;BME280;29744;49.078;12.878;2023-03-18T04:39:40;96145.28;;;14.02;34.03
44079;BME280;29744;49.078;12.878;2023-03-18T04:44:40;96154.16;;;14.02;33.96
44079;BME280;29744;49.078;12.878;2023-03-18T04:49:41;96153.50;;;14.05;33.62
44079;BME280;29744;49.078;12.878;2023-03-18T04:54:41;96142.84;;;14.09;34.12
44079;BME280;29744;49.078;12.878;2023-03-18T04:59:43;96143.13;;;14.16;33.78
44079;BME280;29744;49.078;12.878;2023-03-18T05:04:43;96143.09;;;14.25;33.54
44079;BME280;29744;49.078;12.878;2023-03-18T05:09:44;96152.69;;;14.34;33.91
44079;BME280;29744;49.078;12.878;2023-03-18T05:14:44;96152.75;;;14.46;33.55
44079;BME280;29744;49.078;12.878;2023-03-18T05:19:46;96156.78;;;14.61;33.83
44079;BME280;29744;49.078;12.878;2023-03-18T05:24:47;96152.22;;;14.74;33.36
44079;BME280;29744;49.078;12.878;2023-03-18T05:29:48;96155.41;;;14.88;33.48
44079;BME280;29744;49.078;12.878;2023-03-18T05:34:49;96153.25;;;15.02;33.18
44079;BME280;29744;49.078;12.878;2023-03-18T05:39:49;96153.72;;;15.17;33.42
44079;BME280;29744;49.078;12.878;2023-03-18T05:44:50;96144.97;;;15.32;33.09
44079;BME280;29744;49.078;12.878;2023-03-18T05:49:50;96145.44;;;15.46;33.18
44079;BME280;29744;49.078;12.878;2023-03-18T05:54:50;96144.00;;;15.61;33.19
44079;BME280;29744;49.078;12.878;2023-03-18T05:59:51;96160.22;;;15.73;32.72
44079;BME280;29744;49.078;12.878;2023-03-18T06:04:51;96154.84;;;15.85;32.88
44079;BME280;29744;49.078;12.878;2023-03-18T06:09:51;96160.59;;;15.96;32.75
44079;BME280;29744;49.078;12.878;2023-03-18T06:14:53;96170.50;;;16.04;33.02
44079;BME280;29744;49.078;12.878;2023-03-18T06:19:53;96170.72;;;16.11;32.79
44079;BME280;29744;49.078;12.878;2023-03-18T06:24:54;96177.81;;;16.16;32.58
44079;BME280;29744;49.078;12.878;2023-03-18T06:29:54;96174.09;;;16.20;32.53
44079;BME280;29744;49.078;12.878;2023-03-18T06:34:55;96179.94;;;16.22;32.46
44079;BME280;29744;49.078;12.878;2023-03-18T06:39:55;96180.41;;;16.24;32.41
44079;BME280;29744;49.078;12.878;2023-03-18T06:44:57;96184.34;;;16.27;32.42
44079;BME280;29744;49.078;12.878;2023-03-18T06:49:57;96177.78;;;16.28;32.14
44079;BME280;29744;49.078;12.878;2023-03-18T06:54:57;96181.63;;;16.27;32.46
44079;BME280;29744;49.078;12.878;2023-03-18T06:59:58;96177.34;;;16.26;32.48
44079;BME280;29744;49.078;12.878;2023-03-18T07:04:58;96180.41;;;16.24;32.16
44079;BME280;29744;49.078;12.878;2023-03-18T07:09:59;96180.72;;;16.23;32.42
44079;BME280;29744;49.078;12.878;2023-03-18T07:14:59;96188.84;;;16.23;32.67
44079;BME280;29744;49.078;12.878;2023-03-18T07:20:00;96185.69;;;16.21;32.47
44079;BME280;29744;49.078;12.878;2023-03-18T07:25:00;96178.72;;;16.20;32.44
44079;BME280;29744;49.078;12.878;2023-03-18T07:30:02;96182.22;;;16.20;32.34
44079;BME280;29744;49.078;12.878;2023-03-18T07:40:23;96182.66;;;16.22;32.26
44079;BME280;29744;49.078;12.878;2023-03-18T07:45:23;96183.88;;;16.25;32.75
44079;BME280;29744;49.078;12.878;2023-03-18T07:50:24;96182.41;;;16.27;32.30
44079;BME280;29744;49.078;12.878;2023-03-18T07:55:25;96189.84;;;16.30;32.30
44079;BME280;29744;49.078;12.878;2023-03-18T08:00:25;96192.22;;;16.32;32.20
44079;BME280;29744;49.078;12.878;2023-03-18T08:05:26;96198.41;;;16.32;32.14
44079;BME280;29744;49.078;12.878;2023-03-18T08:10:27;96200.00;;;16.33;32.47
44079;BME280;29744;49.078;12.878;2023-03-18T08:15:28;96193.78;;;16.33;32.29
44079;BME280;29744;49.078;12.878;2023-03-18T08:20:28;96200.78;;;16.34;32.20
44079;BME280;29744;49.078;12.878;2023-03-18T08:25:29;96196.84;;;16.31;31.99
44079;BME280;29744;49.078;12.878;2023-03-18T08:30:29;96195.28;;;16.30;32.42
44079;BME280;29744;49.078;12.878;2023-03-18T08:35:29;96192.91;;;16.29;32.40
44079;BME280;29744;49.078;12.878;2023-03-18T08:40:30;96200.56;;;16.27;32.34
44079;BME280;29744;49.078;12.878;2023-03-18T08:45:30;96194.72;;;16.25;32.18
44079;BME280;29744;49.078;12.878;2023-03-18T08:50:30;96203.50;;;16.22;32.29
44079;BME280;29744;49.078;12.878;2023-03-18T08:55:33;96202.28;;;16.19;32.30
44079;BME280;29744;49.078;12.878;2023-03-18T09:00:36;96205.31;;;16.18;32.34
44079;BME280;29744;49.078;12.878;2023-03-18T09:05:37;96205.22;;;16.14;32.61
44079;BME280;29744;49.078;12.878;2023-03-18T09:10:37;96210.97;;;16.13;32.42
44079;BME280;29744;49.078;12.878;2023-03-18T09:15:37;96203.53;;;16.09;32.10
44079;BME280;29744;49.078;12.878;2023-03-18T09:20:39;96204.19;;;16.06;32.51
44079;BME280;29744;49.078;12.878;2023-03-18T09:25:39;96205.66;;;16.04;32.40
44079;BME280;29744;49.078;12.878;2023-03-18T09:30:41;96209.03;;;16.01;32.12
44079;BME280;29744;49.078;12.878;2023-03-18T09:35:42;96205.09;;;15.98;32.16
44079;BME280;29744;49.078;12.878;2023-03-18T09:41:02;96199.56;;;15.95;32.53
44079;BME280;29744;49.078;12.878;2023-03-18T09:46:22;96199.47;;;15.91;32.38
44079;BME280;29744;49.078;12.878;2023-03-18T09:56:29;96191.56;;;15.86;32.71
44079;BME280;29744;49.078;12.878;2023-03-18T10:01:33;96193.50;;;15.86;32.72
44079;BME280;29744;49.078;12.878;2023-03-18T10:06:36;96186.84;;;15.83;32.73
44079;BME280;29744;49.078;12.878;2023-03-18T10:11:46;96197.22;;;15.81;32.82
44079;BME280;29744;49.078;12.878;2023-03-18T10:17:13;96189.63;;;15.74;32.78
44079;BME280;29744;49.078;12.878;2023-03-18T10:22:21;96188.84;;;15.74;32.82
44079;BME280;29744;49.078;12.878;2023-03-18T10:32:57;96181.28;;;15.67;32.54
44079;BME280;29744;49.078;12.878;2023-03-18T10:38:14;96177.00;;;15.66;32.39
44079;BME280;29744;49.078;12.878;2023-03-18T10:43:20;96176.88;;;15.63;32.81
44079;BME280;29744;49.078;12.878;2023-03-18T10:48:27;96178.00;;;15.62;32.70
44079;BME280;29744;49.078;12.878;2023-03-18T10:58:54;96186.34;;;15.57;32.83
44079;BME280;29744;49.078;12.878;2023-03-18T11:03:59;96181.28;;;15.55;32.90
44079;BME280;29744;49.078;12.878;2023-03-18T11:09:05;96184.31;;;15.54;33.08
44079;BME280;29744;49.078;12.878;2023-03-18T11:14:12;96182.28;;;15.51;32.56
44079;BME280;29744;49.078;12.878;2023-03-18T11:19:31;96181.81;;;15.49;32.60
44079;BME280;29744;49.078;12.878;2023-03-18T11:24:32;96182.94;;;15.48;32.98
44079;BME280;29744;49.078;12.878;2023-03-18T11:29:40;96177.88;;;15.46;33.18
44079;BME280;29744;49.078;12.878;2023-03-18T11:34:44;96173.59;;;15.45;32.91
44079;BME280;29744;49.078;12.878;2023-03-18T11:45:45;96157.59;;;15.40;32.71
44079;BME280;29744;49.078;12.878;2023-03-18T11:56:45;96152.41;;;15.35;33.11
44079;BME280;29744;49.078;12.878;2023-03-18T12:02:12;96146.56;;;15.33;32.80
44079;BME280;29744;49.078;12.878;2023-03-18T12:07:55;96141.50;;;15.31;33.10
44079;BME280;29744;49.078;12.878;2023-03-18T12:18:30;96130.91;;;15.26;32.87
44079;BME280;29744;49.078;12.878;2023-03-18T12:23:52;96122.34;;;15.24;32.89
44079;BME280;29744;49.078;12.878;2023-03-18T12:34:23;96117.63;;;15.21;33.50
44079;BME280;29744;49.078;12.878;2023-03-18T12:39:50;96113.66;;;15.19;32.88
44079;BME280;29744;49.078;12.878;2023-03-18T12:45:33;96101.97;;;15.14;33.50
44079;BME280;29744;49.078;12.878;2023-03-18T12:50:46;96097.34;;;15.15;33.12
44079;BME280;29744;49.078;12.878;2023-03-18T12:55:56;96098.47;;;15.14;33.43
44079;BME280;29744;49.078;12.878;2023-03-18T13:01:04;96097.22;;;15.11;33.02
44079;BME280;29744;49.078;12.878;2023-03-18T13:06:30;96087.09;;;15.08;33.64
44079;BME280;29744;49.078;12.878;2023-03-18T13:12:11;96077.75;;;15.06;33.38
44079;BME280;29744;49.078;12.878;2023-03-18T13:17:23;96073.47;;;15.05;33.66
44079;BME280;29744;49.078;12.878;2023-03-18T13:22:47;96067.94;;;15.01;33.34
44079;BME280;29744;49.078;12.878;2023-03-18T13:33:11;96072.09;;;14.99;33.15
44079;BME280;29744;49.078;12.878;2023-03-18T13:43:39;96061.50;;;14.94;33.82
44079;BME280;29744;49.078;12.878;2023-03-18T13:48:40;96058.34;;;14.92;33.36
44079;BME280;29744;49.078;12.878;2023-03-18T13:53:42;96056.78;;;14.91;33.51
44079;BME280;29744;49.078;12.878;2023-03-18T13:58:45;96057.09;;;14.89;33.28
44079;BME280;29744;49.078;12.878;2023-03-18T14:08:52;96052.38;;;14.86;33.54
44079;BME280;29744;49.078;12.878;2023-03-18T14:13:59;96051.59;;;14.86;33.40
44079;BME280;29744;49.078;12.878;2023-03-18T14:29:23;96054.06;;;14.91;33.84
44079;BME280;29744;49.078;12.878;2023-03-18T14:34:27;96057.34;;;14.96;33.49
44079;BME280;29744;49.078;12.878;2023-03-18T14:39:36;96044.41;;;15.02;33.61
44079;BME280;29744;49.078;12.878;2023-03-18T14:44:45;96048.50;;;15.08;33.66
44079;BME280;29744;49.078;12.878;2023-03-18T14:49:55;96041.75;;;15.14;33.24
44079;BME280;29744;49.078;12.878;2023-03-18T14:55:03;96045.47;;;15.22;33.31
44079;BME280;29744;49.078;12.878;2023-03-18T15:00:13;96043.78;;;15.29;33.57
44079;BME280;29744;49.078;12.878;2023-03-18T15:05:17;96040.19;;;15.37;33.74
44079;BME280;29744;49.078;12.878;2023-03-18T15:10:21;96024.19;;;15.44;33.35
44079;BME280;29744;49.078;12.878;2023-03-18T15:15:23;96033.31;;;15.52;33.10
44079;BME280;29744;49.078;12.878;2023-03-18T15:20:24;96029.25;;;15.58;33.11
44079;BME280;29744;49.078;12.878;2023-03-18T15:25:24;96026.75;;;15.65;33.47
44079;BME280;29744;49.078;12.878;2023-03-18T15:30:28;96030.00;;;15.71;33.13
44079;BME280;29744;49.078;12.878;2023-03-18T15:35:29;96024.03;;;15.77;33.54
44079;BME280;29744;49.078;12.878;2023-03-18T15:40:32;96025.41;;;15.84;32.87
44079;BME280;29744;49.078;12.878;2023-03-18T15:45:39;96027.88;;;15.89;33.24
44079;BME280;29744;49.078;12.878;2023-03-18T15:50:51;96027.97;;;15.92;33.37
44079;BME280;29744;49.078;12.878;2023-03-18T15:55:56;96026.16;;;15.96;33.01
44079;BME280;29744;49.078;12.878;2023-03-18T16:00:57;96020.41;;;15.98;33.09
44079;BME280;29744;49.078;12.878;2023-03-18T16:05:57;96026.25;;;16.00;32.90
44079;BME280;29744;49.078;12.878;2023-03-18T16:11:01;96027.81;;;16.01;32.97
44079;BME280;29744;49.078;12.878;2023-03-18T16:16:03;96028.63;;;16.01;33.07
44079;BME280;29744;49.078;12.878;2023-03-18T16:21:03;96029.41;;;16.02;33.03
44079;BME280;29744;49.078;12.878;2023-03-18T16:26:09;96034.03;;;16.01;32.74
44079;BME280;29744;49.078;12.878;2023-03-18T16:31:11;96030.53;;;16.01;32.73
44079;BME280;29744;49.078;12.878;2023-03-18T16:36:30;96033.94;;;15.98;32.89
44079;BME280;29744;49.078;12.878;2023-03-18T16:41:31;96048.22;;;15.98;33.37
44079;BME280;29744;49.078;12.878;2023-03-18T16:46:31;96049.72;;;15.96;32.90
44079;BME280;29744;49.078;12.878;2023-03-18T16:51:32;96055.44;;;15.94;32.81
44079;BME280;29744;49.078;12.878;2023-03-18T16:56:33;96058.84;;;15.91;32.96
44079;BME280;29744;49.078;12.878;2023-03-18T17:01:33;96068.44;;;15.89;33.08
44079;BME280;29744;49.078;12.878;2023-03-18T17:06:34;96066.84;;;15.88;33.03
44079;BME280;29744;49.078;12.878;2023-03-18T17:11:34;96060.22;;;15.85;33.08
44079;BME280;29744;49.078;12.878;2023-03-18T17:16:35;96068.66;;;15.84;33.05
44079;BME280;29744;49.078;12.878;2023-03-18T17:21:35;96077.13;;;15.82;32.96
44079;BME280;29744;49.078;12.878;2023-03-18T17:26:37;96077.44;;;15.81;33.21
44079;BME280;29744;49.078;12.878;2023-03-18T17:31:37;96079.69;;;15.78;33.22
44079;BME280;29744;49.078;12.878;2023-03-18T17:36:37;96087.00;;;15.78;32.82
44079;BME280;29744;49.078;12.878;2023-03-18T17:41:38;96090.84;;;15.77;33.01
44079;BME280;29744;49.078;12.878;2023-03-18T17:46:39;96096.25;;;15.77;33.29
44079;BME280;29744;49.078;12.878;2023-03-18T17:51:40;96098.94;;;15.77;33.02
44079;BME280;29744;49.078;12.878;2023-03-18T17:56:40;96097.03;;;15.77;32.83
44079;BME280;29744;49.078;12.878;2023-03-18T18:01:41;96099.38;;;15.79;33.20
44079;BME280;29744;49.078;12.878;2023-03-18T18:06:43;96094.47;;;15.81;33.11
44079;BME280;29744;49.078;12.878;2023-03-18T18:11:46;96092.88;;;15.80;33.40
44079;BME280;29744;49.078;12.878;2023-03-18T18:16:48;96092.88;;;15.80;32.83
44079;BME280;29744;49.078;12.878;2023-03-18T18:21:49;96087.47;;;15.80;32.81
44079;BME280;29744;49.078;12.878;2023-03-18T18:26:50;96083.16;;;15.79;33.15
44079;BME280;29744;49.078;12.878;2023-03-18T18:31:51;96090.50;;;15.78;32.97
44079;BME280;29744;49.078;12.878;2023-03-18T18:36:51;96094.31;;;15.77;33.17
44079;BME280;29744;49.078;12.878;2023-03-18T18:41:52;96104.34;;;15.77;33.11
44079;BME280;29744;49.078;12.878;2023-03-18T18:46:52;96101.19;;;15.75;32.83
44079;BME280;29744;49.078;12.878;2023-03-18T18:51:54;96106.59;;;15.75;33.15
44079;BME280;29744;49.078;12.878;2023-03-18T18:56:54;96116.19;;;15.72;33.13
44079;BME280;29744;49.078;12.878;2023-03-18T19:01:55;96109.19;;;15.71;33.30
44079;BME280;29744;49.078;12.878;2023-03-18T19:06:56;96101.44;;;15.70;33.16
44079;BME280;29744;49.078;12.878;2023-03-18T19:11:57;96107.97;;;15.69;33.50
44079;BME280;29744;49.078;12.878;2023-03-18T19:16:57;96106.72;;;15.66;33.35
44079;BME280;29744;49.078;12.878;2023-03-18T19:21:57;96109.75;;;15.65;32.92
44079;BME280;29744;49.078;12.878;2023-03-18T19:27:09;96113.94;;;15.62;33.37
44079;BME280;29744;49.078;12.878;2023-03-18T19:32:16;96109.66;;;15.61;33.46
44079;BME280;29744;49.078;12.878;2023-03-18T19:37:29;96117.31;;;15.59;33.35
44079;BME280;29744;49.078;12.878;2023-03-18T19:42:31;96103.69;;;15.56;33.19
44079;BME280;29744;49.078;12.878;2023-03-18T19:47:33;96108.28;;;15.55;33.07
44079;BME280;29744;49.078;12.878;2023-03-18T19:52:33;96102.44;;;15.53;33.34
44079;BME280;29744;49.078;12.878;2023-03-18T19:57:33;96108.19;;;15.52;33.38
44079;BME280;29744;49.078;12.878;2023-03-18T20:02:33;96107.41;;;15.51;33.55
44079;BME280;29744;49.078;12.878;2023-03-18T20:07:34;96097.72;;;15.50;33.39
44079;BME280;29744;49.078;12.878;2023-03-18T20:12:39;96110.44;;;15.50;33.46
44079;BME280;29744;49.078;12.878;2023-03-18T20:17:44;96114.25;;;15.49;33.32
44079;BME280;29744;49.078;12.878;2023-03-18T20:22:47;96123.94;;;15.50;33.64
44079;BME280;29744;49.078;12.878;2023-03-18T20:27:50;96122.38;;;15.49;33.28
44079;BME280;29744;49.078;12.878;2023-03-18T20:32:55;96129.34;;;15.50;33.38
44079;BME280;29744;49.078;12.878;2023-03-18T20:37:57;96134.41;;;15.51;33.68
44079;BME280;29744;49.078;12.878;2023-03-18T20:42:57;96136.34;;;15.51;33.46
44079;BME280;29744;49.078;12.878;2023-03-18T20:47:58;96133.63;;;15.51;33.39
44079;BME280;29744;49.078;12.878;2023-03-18T20:52:58;96130.16;;;15.50;33.15
44079;BME280;29744;49.078;12.878;2023-03-18T20:57:59;96128.56;;;15.49;33.27
44079;BME280;29744;49.078;12.878;2023-03-18T21:03:01;96138.59;;;15.49;33.63
44079;BME280;29744;49.078;12.878;2023-03-18T21:08:02;96144.00;;;15.49;33.23
44079;BME280;29744;49.078;12.878;2023-03-18T21:13:15;96142.75;;;15.46;33.40
44079;BME280;29744;49.078;12.878;2023-03-18T21:18:16;96143.88;;;15.45;33.36
44079;BME280;29744;49.078;12.878;2023-03-18T21:28:19;96146.91;;;15.43;33.07
44079;BME280;29744;49.078;12.878;2023-03-18T21:33:23;96152.66;;;15.42;33.70
44079;BME280;29744;49.078;12.878;2023-03-18T21:38:26;96152.19;;;15.40;33.59
44079;BME280;29744;49.078;12.878;2023-03-18T21:48:27;96147.13;;;15.38;33.50
44079;BME280;29744;49.078;12.878;2023-03-18T21:53:28;96143.97;;;15.36;33.65
44079;BME280;29744;49.078;12.878;2023-03-18T21:58:28;96134.63;;;15.34;33.24
44079;BME280;29744;49.078;12.878;2023-03-18T22:03:31;96137.66;;;15.32;33.72
44079;BME280;29744;49.078;12.878;2023-03-18T22:08:33;96130.22;;;15.29;33.29
44079;BME280;29744;49.078;12.878;2023-03-18T22:13:33;96127.88;;;15.28;33.40
44079;BME280;29744;49.078;12.878;2023-03-18T22:18:33;96130.91;;;15.26;33.71
44079;BME280;29744;49.078;12.878;2023-03-18T22:23:33;96133.16;;;15.24;33.50
44079;BME280;29744;49.078;12.878;2023-03-18T22:28:35;96126.16;;;15.23;33.46
44079;BME280;29744;49.078;12.878;2023-03-18T22:33:35;96128.75;;;15.20;33.63
44079;BME280;29744;49.078;12.878;2023-03-18T22:38:36;96139.91;;;15.18;33.79
44079;BME280;29744;49.078;12.878;2023-03-18T22:43:36;96142.94;;;15.17;33.97
44079;BME280;29744;49.078;12.878;2023-03-18T22:48:37;96147.09;;;15.14;33.57
44079;BME280;29744;49.078;12.878;2023-03-18T22:53:38;96147.41;;;15.12;33.57
44079;BME280;29744;49.078;12.878;2023-03-18T22:58:39;96145.38;;;15.09;33.61
44079;BME280;29744;49.078;12.878;2023-03-18T23:03:40;96160.81;;;15.09;33.75
44079;BME280;29744;49.078;12.878;2023-03-18T23:08:43;96152.56;;;15.05;33.78
44079;BME280;29744;49.078;12.878;2023-03-18T23:13:47;96148.31;;;15.04;33.59
44079;BME280;29744;49.078;12.878;2023-03-18T23:18:51;96157.81;;;15.02;33.85
44079;BME280;29744;49.078;12.878;2023-03-18T23:23:52;96161.66;;;15.01;33.50
44079;BME280;29744;49.078;12.878;2023-03-18T23:28:52;96156.91;;;14.98;33.87
44079;BME280;29744;49.078;12.878;2023-03-18T23:33:52;96149.94;;;14.97;33.64
44079;BME280;29744;49.078;12.878;2023-03-18T23:38:52;96154.88;;;14.95;33.75
44079;BME280;29744;49.078;12.878;2023-03-18T23:43:53;96160.94;;;14.92;33.78
44079;BME280;29744;49.078;12.878;2023-03-18T23:48:53;96162.06;;;14.91;33.93
44079;BME280;29744;49.078;12.878;2023-03-18T23:53:53;96152.38;;;14.90;33.78
44079;BME280;29744;49.078;12.878;2023-03-18T23:58:54;96174.31;;;14.88;33.79
